createdAt,value
2017-09-30T00:00:07.064Z,14.47
2017-09-30T00:02:35.349Z,13.83
2017-09-30T00:05:03.646Z,13.50
2017-09-30T00:07:31.226Z,15.00
2017-09-30T00:09:58.790Z,13.50
2017-09-30T00:12:27.138Z,14.33
2017-09-30T00:14:54.654Z,13.77
2017-09-30T00:17:22.219Z,14.73
2017-09-30T00:19:49.790Z,14.57
2017-09-30T00:22:17.352Z,15.90
2017-09-30T00:24:44.912Z,16.40
2017-09-30T00:27:12.455Z,14.47
2017-09-30T00:29:40.790Z,15.43
2017-09-30T00:32:08.343Z,14.07
2017-09-30T00:34:35.916Z,16.30
2017-09-30T00:37:03.961Z,14.97
2017-09-30T00:39:31.496Z,15.53
2017-09-30T00:41:59.034Z,14.17
2017-09-30T00:44:27.361Z,14.40
2017-09-30T00:46:54.895Z,14.87
2017-09-30T00:49:22.775Z,15.50
2017-09-30T00:51:50.297Z,14.20
2017-09-30T00:54:18.588Z,15.93
2017-09-30T00:56:46.896Z,15.43
2017-09-30T00:59:14.421Z,15.60
2017-09-30T01:01:42.327Z,15.00
2017-09-30T01:04:09.860Z,14.90
2017-09-30T01:06:37.367Z,14.50
2017-09-30T01:09:04.914Z,16.80
2017-09-30T01:11:32.462Z,15.87
2017-09-30T01:14:00.048Z,16.10
2017-09-30T01:16:27.574Z,15.33
2017-09-30T01:18:55.109Z,16.77
2017-09-30T01:21:23.432Z,17.30
2017-09-30T01:23:51.714Z,15.70
2017-09-30T01:26:19.616Z,16.90
2017-09-30T01:28:47.155Z,17.20
2017-09-30T01:31:14.679Z,17.27
2017-09-30T01:33:42.227Z,17.17
2017-09-30T01:36:09.778Z,16.77
2017-09-30T01:38:38.110Z,15.10
2017-09-30T01:41:05.632Z,15.70
2017-09-30T01:43:33.151Z,15.90
2017-09-30T01:46:00.739Z,15.60
2017-09-30T01:48:28.262Z,17.13
2017-09-30T01:50:55.839Z,15.37
2017-09-30T01:53:24.124Z,15.83
2017-09-30T01:55:52.431Z,17.03
2017-09-30T01:58:19.992Z,15.57
2017-09-30T02:00:47.541Z,17.23
2017-09-30T02:03:15.432Z,16.70
2017-09-30T02:05:42.976Z,18.10
2017-09-30T02:08:10.557Z,16.50
2017-09-30T02:10:38.136Z,16.80
2017-09-30T02:13:05.656Z,16.40
2017-09-30T02:15:33.566Z,15.40
2017-09-30T02:18:01.101Z,16.40
2017-09-30T02:20:28.631Z,16.67
2017-09-30T02:22:56.950Z,16.53
2017-09-30T02:25:24.482Z,16.87
2017-09-30T02:27:52.073Z,16.70
2017-09-30T02:30:19.600Z,16.90
2017-09-30T02:32:47.157Z,18.57
2017-09-30T02:35:14.725Z,17.00
2017-09-30T02:37:42.279Z,16.90
2017-09-30T02:40:09.864Z,15.73
2017-09-30T02:42:37.388Z,16.70
2017-09-30T02:45:05.700Z,17.90
2017-09-30T02:47:33.294Z,17.40
2017-09-30T02:50:00.823Z,16.73
2017-09-30T02:52:28.669Z,16.30
2017-09-30T02:54:56.197Z,17.80
2017-09-30T02:57:24.508Z,16.27
2017-09-30T02:59:52.096Z,15.50
2017-09-30T03:02:19.617Z,16.80
2017-09-30T03:04:48.216Z,17.33
2017-09-30T03:07:15.744Z,17.43
2017-09-30T03:09:44.049Z,16.30
2017-09-30T03:12:12.387Z,16.60
2017-09-30T03:14:39.912Z,16.83
2017-09-30T03:17:08.496Z,16.03
2017-09-30T03:19:36.030Z,16.90
2017-09-30T03:22:04.539Z,17.43
2017-09-30T03:24:32.090Z,19.40
2017-09-30T03:26:59.646Z,16.57
2017-09-30T03:29:27.537Z,16.50
2017-09-30T03:31:55.065Z,16.17
2017-09-30T03:34:22.622Z,15.77
2017-09-30T03:36:50.940Z,17.13
2017-09-30T03:39:18.500Z,16.80
2017-09-30T03:41:46.365Z,17.17
2017-09-30T03:44:13.878Z,16.70
2017-09-30T03:46:42.199Z,16.63
2017-09-30T03:49:09.751Z,17.47
2017-09-30T03:51:37.298Z,16.07
2017-09-30T03:54:04.864Z,17.40
2017-09-30T03:56:32.375Z,17.30
2017-09-30T03:58:59.909Z,17.10
2017-09-30T04:01:27.704Z,15.93
2017-09-30T04:03:55.268Z,15.73
2017-09-30T04:06:22.835Z,16.90
2017-09-30T04:08:50.347Z,16.30
2017-09-30T04:11:17.880Z,16.90
2017-09-30T04:13:45.418Z,17.30
2017-09-30T04:16:13.715Z,15.73
2017-09-30T04:18:41.282Z,15.47
2017-09-30T04:21:09.594Z,16.33
2017-09-30T04:23:37.110Z,16.80
2017-09-30T04:26:05.426Z,16.80
2017-09-30T04:28:32.955Z,17.00
2017-09-30T04:31:00.519Z,16.77
2017-09-30T04:33:28.039Z,16.80
2017-09-30T04:35:55.565Z,16.60
2017-09-30T04:38:23.150Z,16.00
2017-09-30T04:40:50.673Z,15.87
2017-09-30T04:43:18.246Z,16.97
2017-09-30T04:45:45.763Z,15.77
2017-09-30T04:48:14.067Z,15.37
2017-09-30T04:50:41.664Z,15.47
2017-09-30T04:53:09.174Z,16.97
2017-09-30T04:55:37.013Z,16.03
2017-09-30T04:58:05.310Z,15.97
2017-09-30T05:00:33.590Z,16.43
2017-09-30T05:03:01.908Z,15.93
2017-09-30T05:05:29.478Z,15.10
2017-09-30T05:07:57.059Z,16.20
2017-09-30T05:10:24.587Z,14.87
2017-09-30T05:12:52.143Z,14.80
2017-09-30T05:15:19.942Z,15.70
2017-09-30T05:17:47.475Z,15.70
2017-09-30T05:20:15.039Z,15.67
2017-09-30T05:22:42.563Z,14.73
2017-09-30T05:25:10.134Z,15.57
2017-09-30T05:27:37.684Z,15.63
2017-09-30T05:30:05.238Z,16.90
2017-09-30T05:32:33.076Z,15.67
2017-09-30T05:35:01.396Z,14.90
2017-09-30T05:37:28.917Z,15.20
2017-09-30T05:39:56.502Z,16.53
2017-09-30T05:42:24.924Z,14.87
2017-09-30T05:44:52.790Z,15.73
2017-09-30T05:47:20.326Z,14.43
2017-09-30T05:49:47.845Z,15.07
2017-09-30T05:52:15.422Z,13.47
2017-09-30T05:54:42.937Z,15.37
2017-09-30T05:57:10.506Z,13.87
2017-09-30T05:59:38.028Z,14.20
2017-09-30T06:02:05.619Z,13.13
2017-09-30T06:04:33.211Z,15.30
2017-09-30T06:07:00.727Z,14.20
2017-09-30T06:09:28.607Z,13.73
2017-09-30T06:11:56.125Z,14.10
2017-09-30T06:14:23.656Z,13.87
2017-09-30T06:16:51.212Z,13.73
2017-09-30T06:19:18.763Z,14.07
2017-09-30T06:21:50.087Z,13.90
2017-09-30T06:24:17.724Z,14.90
2017-09-30T06:26:45.545Z,16.23
2017-09-30T06:29:13.998Z,13.83
2017-09-30T06:31:41.615Z,13.57
2017-09-30T06:34:09.266Z,13.60
2017-09-30T06:36:36.856Z,13.40
2017-09-30T06:39:28.238Z,13.20
2017-09-30T06:41:55.817Z,13.67
2017-09-30T06:44:26.729Z,13.80
2017-09-30T06:46:54.331Z,15.17
2017-09-30T06:49:21.902Z,12.60
2017-09-30T06:51:49.575Z,12.50
2017-09-30T06:54:17.135Z,12.80
2017-09-30T06:56:44.714Z,12.97
2017-09-30T06:59:13.338Z,14.40
2017-09-30T07:01:41.991Z,14.00
2017-09-30T07:04:13.955Z,13.43
2017-09-30T07:06:41.507Z,13.97
2017-09-30T07:09:09.317Z,14.67
2017-09-30T07:11:37.716Z,13.00
2017-09-30T07:14:05.372Z,13.30
2017-09-30T07:16:34.058Z,13.30
2017-09-30T07:19:02.488Z,12.87
2017-09-30T07:21:30.029Z,14.57
2017-09-30T07:23:57.738Z,12.43
2017-09-30T07:26:25.424Z,13.20
2017-09-30T07:28:53.056Z,13.13
2017-09-30T07:31:20.574Z,12.57
2017-09-30T07:33:48.166Z,13.90
2017-09-30T07:36:15.778Z,12.23
2017-09-30T07:38:43.366Z,12.63
2017-09-30T07:41:11.077Z,12.70
2017-09-30T07:43:39.446Z,12.47
2017-09-30T07:46:07.114Z,12.97
2017-09-30T07:48:34.774Z,12.60
2017-09-30T07:51:02.643Z,12.37
2017-09-30T07:53:30.575Z,12.70
2017-09-30T07:56:00.152Z,12.17
2017-09-30T07:58:27.877Z,12.20
2017-09-30T08:00:55.864Z,12.30
2017-09-30T08:03:23.511Z,12.20
2017-09-30T08:05:51.949Z,13.53
2017-09-30T08:08:19.540Z,12.57
2017-09-30T08:10:47.058Z,12.60
2017-09-30T08:13:14.710Z,12.50
2017-09-30T08:15:42.558Z,12.20
2017-09-30T08:18:10.215Z,13.10
2017-09-30T08:20:38.128Z,12.73
2017-09-30T08:23:05.743Z,11.60
2017-09-30T08:25:33.480Z,13.33
2017-09-30T08:28:01.036Z,11.90
2017-09-30T08:30:28.616Z,12.60
2017-09-30T08:32:56.217Z,12.90
2017-09-30T08:35:23.745Z,13.63
2017-09-30T08:37:51.300Z,12.93
2017-09-30T08:40:18.944Z,11.83
2017-09-30T08:42:46.804Z,11.67
2017-09-30T08:45:14.321Z,11.87
2017-09-30T08:47:42.623Z,11.77
2017-09-30T08:50:10.204Z,12.60
2017-09-30T08:52:38.555Z,11.97
2017-09-30T08:55:06.250Z,12.43
2017-09-30T08:57:33.816Z,11.93
2017-09-30T09:00:01.396Z,12.80
2017-09-30T09:02:29.054Z,12.30
2017-09-30T09:04:56.623Z,12.23
2017-09-30T09:07:24.214Z,11.37
2017-09-30T09:09:51.822Z,12.33
2017-09-30T09:12:19.521Z,12.10
2017-09-30T09:14:47.212Z,11.83
2017-09-30T09:17:14.832Z,12.27
2017-09-30T09:19:42.703Z,12.67
2017-09-30T09:22:11.084Z,12.63
2017-09-30T09:24:38.731Z,11.03
2017-09-30T09:27:06.476Z,11.23
2017-09-30T09:29:34.027Z,10.73
2017-09-30T09:32:03.113Z,11.47
2017-09-30T09:34:31.479Z,12.27
2017-09-30T09:36:59.097Z,11.20
2017-09-30T09:39:26.866Z,11.37
2017-09-30T09:41:54.491Z,11.70
2017-09-30T09:44:22.487Z,10.80
2017-09-30T09:46:50.067Z,11.73
2017-09-30T09:49:17.644Z,10.90
2017-09-30T09:51:47.723Z,11.10
2017-09-30T09:54:15.426Z,12.57
2017-09-30T09:56:43.850Z,11.70
2017-09-30T09:59:11.716Z,12.83
2017-09-30T10:01:39.344Z,11.93
2017-09-30T10:04:07.263Z,11.13
2017-09-30T10:06:34.872Z,12.20
2017-09-30T10:09:03.280Z,12.80
2017-09-30T10:11:31.660Z,12.40
2017-09-30T10:13:59.309Z,13.57
2017-09-30T10:16:28.450Z,12.43
2017-09-30T10:18:56.809Z,12.23
2017-09-30T10:21:29.260Z,11.97
2017-09-30T10:23:57.173Z,12.37
2017-09-30T10:26:24.772Z,11.70
2017-09-30T10:28:52.446Z,12.07
2017-09-30T10:31:20.011Z,11.93
2017-09-30T10:33:47.633Z,11.77
2017-09-30T10:36:15.241Z,13.03
2017-09-30T10:38:42.880Z,12.60
2017-09-30T10:41:11.260Z,13.00
2017-09-30T10:43:38.826Z,12.80
2017-09-30T10:46:06.547Z,12.67
2017-09-30T10:48:34.115Z,11.40
2017-09-30T10:51:01.787Z,12.80
2017-09-30T10:53:30.109Z,13.17
2017-09-30T10:55:58.436Z,12.97
2017-09-30T10:58:26.015Z,12.50
2017-09-30T11:00:53.597Z,12.50
2017-09-30T11:03:21.139Z,12.00
2017-09-30T11:05:48.704Z,11.77
2017-09-30T11:08:16.256Z,13.27
2017-09-30T11:10:44.141Z,12.77
2017-09-30T11:13:11.684Z,13.30
2017-09-30T11:15:39.242Z,11.53
2017-09-30T11:18:06.819Z,11.70
2017-09-30T11:20:34.366Z,11.37
2017-09-30T11:23:02.224Z,11.83
2017-09-30T11:25:29.757Z,12.20
2017-09-30T11:27:57.288Z,11.80
2017-09-30T11:30:24.871Z,11.57
2017-09-30T11:32:54.075Z,11.50
2017-09-30T11:35:21.980Z,10.67
2017-09-30T11:37:49.512Z,11.70
2017-09-30T11:40:17.068Z,11.60
2017-09-30T11:42:44.647Z,11.50
2017-09-30T11:45:12.181Z,11.60
2017-09-30T11:47:40.086Z,12.33
2017-09-30T11:50:07.654Z,11.57
2017-09-30T11:52:35.182Z,10.80
2017-09-30T11:55:02.739Z,11.17
2017-09-30T11:57:30.312Z,11.20
2017-09-30T11:59:57.899Z,10.60
2017-09-30T12:02:25.443Z,10.70
2017-09-30T12:04:52.976Z,11.27
2017-09-30T12:07:22.106Z,10.10
2017-09-30T12:09:49.659Z,10.80
2017-09-30T12:12:17.251Z,11.47
2017-09-30T12:14:44.799Z,10.47
2017-09-30T12:17:12.327Z,10.20
2017-09-30T12:19:39.913Z,9.50
2017-09-30T12:22:07.436Z,9.50
2017-09-30T12:24:35.003Z,10.03
2017-09-30T12:27:02.563Z,9.93
2017-09-30T12:29:30.104Z,9.90
2017-09-30T12:31:58.414Z,9.40
2017-09-30T12:34:25.937Z,10.10
2017-09-30T12:36:54.299Z,9.70
2017-09-30T12:39:21.819Z,9.80
2017-09-30T12:41:49.409Z,10.17
2017-09-30T12:44:16.989Z,9.10
2017-09-30T12:46:45.295Z,8.80
2017-09-30T12:49:13.927Z,10.17
2017-09-30T12:51:41.485Z,9.30
2017-09-30T12:54:09.047Z,10.20
2017-09-30T12:56:36.621Z,9.83
2017-09-30T12:59:05.131Z,11.13
2017-09-30T13:01:32.811Z,10.80
2017-09-30T13:04:00.427Z,10.10
2017-09-30T13:06:28.163Z,9.07
2017-09-30T13:08:55.734Z,9.03
2017-09-30T13:11:23.297Z,9.87
2017-09-30T13:13:51.867Z,11.10
2017-09-30T13:16:19.490Z,10.10
2017-09-30T13:18:48.730Z,9.37
2017-09-30T13:21:16.698Z,9.77
2017-09-30T13:23:45.067Z,10.00
2017-09-30T13:26:13.382Z,9.27
2017-09-30T13:28:41.300Z,9.00
2017-09-30T13:31:09.707Z,9.13
2017-09-30T13:36:17.896Z,9.13
2017-09-30T13:38:45.632Z,9.57
2017-09-30T13:41:14.362Z,9.37
2017-09-30T13:43:42.166Z,9.43
2017-09-30T13:46:09.979Z,10.23
2017-09-30T13:48:37.583Z,9.20
2017-09-30T13:51:05.345Z,9.40
2017-09-30T13:53:32.988Z,9.07
2017-09-30T13:56:00.655Z,8.30
2017-09-30T13:58:28.647Z,9.30
2017-09-30T14:00:56.488Z,8.30
2017-09-30T14:03:24.411Z,8.50
2017-09-30T14:05:51.995Z,9.43
2017-09-30T14:08:30.622Z,8.50
2017-09-30T14:10:58.383Z,8.87
2017-09-30T14:13:26.811Z,9.00
2017-09-30T14:15:54.406Z,8.90
2017-09-30T14:18:22.024Z,9.67
2017-09-30T14:20:50.585Z,9.50
2017-09-30T14:23:20.977Z,9.73
2017-09-30T14:25:50.475Z,9.53
2017-09-30T14:28:20.437Z,10.17
2017-09-30T14:30:50.733Z,9.27
2017-09-30T14:33:19.673Z,10.37
2017-09-30T14:35:47.515Z,9.87
2017-09-30T14:38:15.826Z,9.10
2017-09-30T14:40:43.352Z,9.13
2017-09-30T14:43:11.759Z,10.30
2017-09-30T14:45:39.327Z,8.87
2017-09-30T14:48:06.851Z,9.47
2017-09-30T14:50:35.167Z,9.77
2017-09-30T14:53:02.728Z,9.43
2017-09-30T14:55:30.744Z,9.47
2017-09-30T14:57:58.278Z,9.37
2017-09-30T15:00:25.795Z,8.70
2017-09-30T15:02:54.114Z,9.07
2017-09-30T15:05:21.708Z,8.33
2017-09-30T15:07:49.322Z,10.00
2017-09-30T15:10:16.972Z,9.30
2017-09-30T15:12:45.264Z,8.63
2017-09-30T15:15:12.841Z,8.53
2017-09-30T15:17:40.369Z,8.90
2017-09-30T15:20:08.228Z,9.50
2017-09-30T15:22:35.760Z,8.30
2017-09-30T15:25:04.074Z,8.80
2017-09-30T15:27:31.651Z,8.47
2017-09-30T15:29:59.195Z,10.20
2017-09-30T15:32:26.841Z,9.47
2017-09-30T15:34:55.123Z,8.50
2017-09-30T15:37:23.421Z,8.60
2017-09-30T15:39:50.972Z,8.90
2017-09-30T15:42:18.493Z,8.30
2017-09-30T15:44:46.849Z,8.30
2017-09-30T15:47:14.489Z,8.60
2017-09-30T15:49:42.019Z,9.00
2017-09-30T15:52:10.332Z,8.87
2017-09-30T15:54:37.855Z,8.10
2017-09-30T15:57:06.209Z,8.80
2017-09-30T15:59:33.751Z,8.30
2017-09-30T16:02:01.272Z,9.33
2017-09-30T16:04:28.825Z,8.33
2017-09-30T16:06:56.349Z,8.27
2017-09-30T16:09:24.011Z,8.50
2017-09-30T16:11:51.557Z,9.00
2017-09-30T16:14:20.344Z,9.00
2017-09-30T16:16:47.943Z,13.10
2017-09-30T16:19:15.511Z,11.00
2017-09-30T16:21:43.848Z,9.30
2017-09-30T16:24:11.371Z,8.67
2017-09-30T16:26:38.929Z,9.57
2017-09-30T16:29:06.528Z,8.23
2017-09-30T16:31:34.048Z,8.87
2017-09-30T16:34:01.643Z,9.03
2017-09-30T16:36:29.774Z,9.60
2017-09-30T16:38:57.322Z,11.40
2017-09-30T16:41:25.665Z,12.50
2017-09-30T16:43:53.303Z,13.10
2017-09-30T16:46:20.923Z,10.20
2017-09-30T16:48:49.343Z,11.93
2017-09-30T16:51:16.884Z,8.80
2017-09-30T16:53:44.458Z,8.37
2017-09-30T16:56:12.738Z,8.90
2017-09-30T16:58:40.317Z,8.40
2017-09-30T17:01:07.848Z,9.23
2017-09-30T17:03:35.371Z,7.97
2017-09-30T17:06:02.971Z,8.63
2017-09-30T17:08:30.498Z,9.37
2017-09-30T17:10:58.105Z,8.30
2017-09-30T17:13:25.644Z,10.00
2017-09-30T17:15:53.233Z,8.57
2017-09-30T17:18:20.763Z,8.60
2017-09-30T17:20:49.096Z,9.37
2017-09-30T17:23:16.670Z,9.23
2017-09-30T17:25:44.976Z,17.17
2017-09-30T17:28:13.587Z,10.50
2017-09-30T17:30:41.168Z,11.10
2017-09-30T17:33:08.697Z,11.60
2017-09-30T17:35:36.272Z,10.43
2017-09-30T17:38:03.811Z,9.10
2017-09-30T17:40:31.390Z,9.00
2017-09-30T17:42:58.939Z,10.17
2017-09-30T17:45:26.477Z,10.57
2017-09-30T17:47:54.808Z,10.10
2017-09-30T17:50:22.321Z,9.93
2017-09-30T17:52:50.974Z,10.10
2017-09-30T17:55:18.495Z,9.93
2017-09-30T17:57:46.073Z,9.30
2017-09-30T18:00:13.663Z,9.77
2017-09-30T18:02:41.225Z,9.83
2017-09-30T18:05:08.831Z,10.20
2017-09-30T18:07:36.355Z,9.27
2017-09-30T18:10:04.634Z,9.60
2017-09-30T18:12:32.969Z,10.73
2017-09-30T18:15:01.275Z,10.97
2017-09-30T18:17:28.843Z,9.83
2017-09-30T18:19:57.235Z,9.77
2017-09-30T18:22:25.567Z,10.50
2017-09-30T18:24:53.162Z,10.30
2017-09-30T18:27:21.585Z,10.87
2017-09-30T18:29:49.230Z,10.50
2017-09-30T18:32:16.789Z,10.27
2017-09-30T18:34:46.107Z,10.93
2017-09-30T18:37:13.702Z,11.03
2017-09-30T18:39:41.293Z,10.20
2017-09-30T18:42:09.145Z,12.13
2017-09-30T18:44:36.703Z,10.57
2017-09-30T18:47:04.261Z,10.63
2017-09-30T18:49:31.849Z,10.33
2017-09-30T18:52:00.235Z,10.47
2017-09-30T18:54:28.613Z,10.53
2017-09-30T18:56:56.967Z,16.17
2017-09-30T18:59:24.564Z,11.00
2017-09-30T19:01:52.924Z,12.63
2017-09-30T19:04:21.240Z,11.73
2017-09-30T19:06:48.885Z,10.37
2017-09-30T19:09:17.183Z,12.63
2017-09-30T19:11:44.755Z,11.47
2017-09-30T19:14:12.439Z,11.37
2017-09-30T19:16:40.017Z,10.57
2017-09-30T19:19:07.614Z,12.00
2017-09-30T19:21:35.202Z,12.77
2017-09-30T19:24:02.777Z,12.70
2017-09-30T19:26:30.417Z,11.43
2017-09-30T19:28:58.034Z,12.27
2017-09-30T19:31:25.668Z,12.23
2017-09-30T19:33:53.297Z,10.60
2017-09-30T19:36:20.838Z,12.20
2017-09-30T19:38:48.437Z,11.60
2017-09-30T19:41:15.974Z,11.37
2017-09-30T19:43:43.576Z,11.70
2017-09-30T19:46:11.166Z,11.23
2017-09-30T19:48:38.738Z,10.80
2017-09-30T19:51:07.059Z,10.73
2017-09-30T19:53:34.583Z,11.10
2017-09-30T19:56:02.957Z,9.80
2017-09-30T19:58:31.277Z,9.90
2017-09-30T20:00:59.142Z,10.47
2017-09-30T20:03:26.922Z,10.30
2017-09-30T20:05:55.375Z,10.40
2017-09-30T20:08:23.036Z,11.40
2017-09-30T20:10:50.635Z,12.70
2017-09-30T20:13:18.269Z,11.10
2017-09-30T20:15:47.743Z,9.60
2017-09-30T20:21:31.684Z,11.50
2017-09-30T20:24:02.397Z,10.60
2017-09-30T20:26:30.896Z,10.10
2017-09-30T20:28:58.529Z,11.00
2017-09-30T20:31:26.198Z,11.73
2017-09-30T20:33:55.611Z,12.03
2017-09-30T20:36:23.174Z,11.03
2017-09-30T20:38:51.156Z,10.53
2017-09-30T20:41:18.854Z,10.73
2017-09-30T20:43:46.523Z,10.50
2017-09-30T20:46:14.267Z,11.00
2017-09-30T20:48:41.857Z,10.00
2017-09-30T20:51:10.329Z,11.30
2017-09-30T20:53:37.944Z,10.17
2017-09-30T20:56:05.611Z,10.90
2017-09-30T20:58:33.187Z,9.60
2017-09-30T21:01:01.603Z,9.53
2017-09-30T21:03:29.523Z,10.53
2017-09-30T21:05:57.187Z,9.47
2017-09-30T21:08:25.566Z,10.40
2017-09-30T21:10:53.226Z,9.43
2017-09-30T21:13:22.581Z,9.17
2017-09-30T21:15:50.280Z,9.80
2017-09-30T21:18:18.912Z,9.83
2017-09-30T21:20:47.309Z,10.40
2017-09-30T21:23:14.984Z,10.23
2017-09-30T21:25:42.629Z,11.23
2017-09-30T21:28:10.399Z,9.57
2017-09-30T21:30:38.810Z,9.80
2017-09-30T21:33:06.448Z,10.90
2017-09-30T21:35:34.108Z,9.43
2017-09-30T21:38:01.701Z,10.07
2017-09-30T21:40:29.322Z,10.23
2017-09-30T21:42:57.779Z,10.30
2017-09-30T21:45:26.231Z,9.77
2017-09-30T21:47:53.935Z,9.93
2017-09-30T21:50:23.115Z,11.10
2017-09-30T21:52:50.980Z,9.50
2017-09-30T21:55:18.511Z,9.70
2017-09-30T21:57:46.087Z,9.83
2017-09-30T22:00:13.706Z,10.17
2017-09-30T22:02:42.003Z,10.27
2017-09-30T22:05:09.594Z,10.57
2017-09-30T22:07:37.145Z,11.07
2017-09-30T22:10:04.705Z,10.40
2017-09-30T22:12:32.504Z,10.07
2017-09-30T22:15:00.051Z,10.37
2017-09-30T22:17:27.998Z,10.53
2017-09-30T22:19:55.635Z,9.70
2017-09-30T22:22:23.175Z,10.90
2017-09-30T22:24:51.525Z,10.50
2017-09-30T22:27:19.076Z,9.47
2017-09-30T22:29:46.929Z,10.30
2017-09-30T22:32:14.475Z,10.50
2017-09-30T22:34:42.007Z,10.83
2017-09-30T22:37:10.333Z,10.60
2017-09-30T22:39:37.908Z,11.33
2017-09-30T22:42:05.677Z,10.53
2017-09-30T22:44:33.229Z,9.93
2017-09-30T22:47:00.773Z,10.80
2017-09-30T22:49:28.356Z,11.00
2017-09-30T22:51:55.905Z,11.70
2017-09-30T22:54:23.748Z,11.13
2017-09-30T22:56:51.385Z,10.60
2017-09-30T22:59:19.693Z,11.40
2017-09-30T23:01:47.269Z,12.57
2017-09-30T23:04:14.856Z,10.20
2017-09-30T23:06:42.712Z,10.00
2017-09-30T23:09:10.260Z,11.03
2017-09-30T23:11:37.830Z,11.80
2017-09-30T23:14:05.384Z,11.90
2017-09-30T23:16:32.913Z,10.83
2017-09-30T23:19:01.672Z,10.10
2017-09-30T23:21:29.992Z,11.50
2017-09-30T23:23:57.518Z,11.33
2017-09-30T23:26:25.831Z,10.57
2017-09-30T23:28:53.678Z,11.10
2017-09-30T23:31:21.270Z,11.87
2017-09-30T23:33:48.805Z,11.13
2017-09-30T23:36:16.343Z,11.00
2017-09-30T23:38:44.673Z,11.60
2017-09-30T23:41:12.200Z,12.10
2017-09-30T23:43:39.848Z,11.07
2017-09-30T23:46:08.179Z,12.00
2017-09-30T23:48:35.748Z,10.23
2017-09-30T23:51:03.385Z,11.30
2017-09-30T23:53:30.913Z,11.00
2017-09-30T23:55:58.946Z,10.63
2017-09-30T23:58:26.503Z,11.00
